Time;durP1;ratioP1;P1;durP2;ratioP2;P2;SDS_P1;SDS_P2;PMS_P1;PMS_P2;Temp;Humidity;BMP_temperature;BMP_pressure;BME280_temperature;BME280_humidity;BME280_pressure;Samples;Min_cycle;Max_cycle;Signal;HPM_P1;HPM_P2
2023/09/02 00:00:45;;;;;;;6.72;6.03;;;11.10;99.90;;;;;;5054594;28;20051;-29
2023/09/02 00:03:11;;;;;;;11.82;7.72;;;11.00;99.90;;;;;;5054198;28;20446;-28
2023/09/02 00:05:36;;;;;;;11.55;7.20;;;11.00;99.90;;;;;;5055006;28;20041;-28
2023/09/02 00:08:02;;;;;;;12.88;7.38;;;11.10;99.90;;;;;;5053489;28;20387;-29
2023/09/02 00:10:28;;;;;;;10.23;7.85;;;11.20;99.90;;;;;;5054456;28;20407;-29
2023/09/02 00:12:54;;;;;;;9.63;7.40;;;11.20;99.90;;;;;;5054336;28;20045;-28
2023/09/02 00:15:20;;;;;;;13.23;8.50;;;11.40;99.90;;;;;;5054286;28;20536;-29
2023/09/02 00:17:47;;;;;;;11.00;8.18;;;11.40;99.90;;;;;;5053621;28;20048;-29
2023/09/02 00:20:12;;;;;;;11.77;8.98;;;11.40;99.90;;;;;;5054166;28;20172;-28
2023/09/02 00:22:38;;;;;;;11.13;7.75;;;11.50;99.90;;;;;;5054185;28;20103;-29
2023/09/02 00:25:04;;;;;;;9.05;7.07;;;11.50;99.90;;;;;;5054070;28;20041;-28
2023/09/02 00:27:30;;;;;;;8.10;5.85;;;11.30;99.90;;;;;;5053235;28;20053;-29
2023/09/02 00:29:56;;;;;;;7.20;5.50;;;11.20;99.90;;;;;;5053746;28;20123;-28
2023/09/02 00:32:23;;;;;;;7.95;5.57;;;11.00;99.90;;;;;;5054027;28;20052;-28
2023/09/02 00:34:49;;;;;;;7.97;5.97;;;10.90;99.90;;;;;;5054534;28;20445;-28
2023/09/02 00:37:14;;;;;;;9.43;6.53;;;10.80;99.90;;;;;;5053947;28;20102;-28
2023/09/02 00:39:40;;;;;;;8.40;6.78;;;10.70;99.90;;;;;;5052975;28;20053;-28
2023/09/02 00:42:09;;;;;;;10.77;7.28;;;10.70;99.90;;;;;;5054342;28;20072;-27
2023/09/02 00:44:35;;;;;;;8.65;6.75;;;10.70;99.90;;;;;;5052767;28;20057;-29
2023/09/02 00:47:02;;;;;;;13.15;7.82;;;10.70;99.90;;;;;;5053853;28;20372;-29
2023/09/02 00:49:28;;;;;;;13.82;9.23;;;10.60;99.90;;;;;;5053752;28;20049;-28
2023/09/02 00:51:53;;;;;;;12.30;8.15;;;10.70;99.90;;;;;;5052809;28;20044;-28
2023/09/02 00:54:19;;;;;;;19.88;9.35;;;10.70;99.90;;;;;;5054264;28;20048;-28
2023/09/02 00:56:45;;;;;;;16.25;9.52;;;10.70;99.90;;;;;;5053657;28;20479;-28
2023/09/02 00:59:11;;;;;;;15.82;10.30;;;10.70;99.90;;;;;;5053207;28;20044;-28
2023/09/02 01:01:41;;;;;;;12.95;9.45;;;10.70;99.90;;;;;;5053612;28;20048;-28
2023/09/02 01:04:07;;;;;;;11.93;8.90;;;10.70;99.90;;;;;;5053504;28;20171;-28
2023/09/02 01:06:36;;;;;;;14.98;9.98;;;10.70;99.90;;;;;;5053549;28;20132;-28
2023/09/02 01:09:04;;;;;;;15.50;9.85;;;10.70;99.90;;;;;;5053535;28;20072;-28
2023/09/02 01:11:31;;;;;;;16.90;10.88;;;10.70;99.90;;;;;;5054057;28;20088;-28
2023/09/02 01:13:56;;;;;;;16.38;10.90;;;10.70;99.90;;;;;;5053539;28;20075;-28
2023/09/02 01:16:23;;;;;;;16.08;10.38;;;10.70;99.90;;;;;;5054031;28;20037;-28
2023/09/02 01:18:49;;;;;;;18.02;11.38;;;10.60;99.90;;;;;;5053450;28;20115;-28
2023/09/02 01:21:22;;;;;;;13.73;10.32;;;10.60;99.90;;;;;;5053394;28;20132;-28
2023/09/02 01:23:47;;;;;;;;;;;10.60;99.90;;;;;;5054383;28;20060;-28
2023/09/02 01:26:46;;;;;;;12.38;8.63;;;10.60;99.90;;;;;;5052098;28;19921;-28
2023/09/02 01:29:18;;;;;;;10.93;7.70;;;10.50;99.90;;;;;;5053681;28;20076;-28
2023/09/02 01:31:46;;;;;;;13.00;9.27;;;10.50;99.90;;;;;;5052240;28;20049;-28
2023/09/02 01:34:12;;;;;;;12.82;8.88;;;10.40;99.90;;;;;;5053278;28;20055;-28
2023/09/02 01:36:41;;;;;;;17.55;11.18;;;10.40;99.90;;;;;;5052351;28;20059;-28
2023/09/02 01:39:09;;;;;;;14.13;9.55;;;10.40;99.90;;;;;;5055564;28;20067;-28
2023/09/02 01:41:36;;;;;;;13.65;8.77;;;10.30;99.90;;;;;;5057196;28;20063;-28
2023/09/02 01:44:04;;;;;;;13.73;8.75;;;10.20;99.90;;;;;;5057000;28;20053;-28
2023/09/02 01:46:29;;;;;;;15.80;10.23;;;10.20;99.90;;;;;;5057708;28;20045;-28
2023/09/02 01:48:56;;;;;;;13.95;9.38;;;10.10;99.90;;;;;;5057100;28;20376;-28
2023/09/02 01:51:22;;;;;;;14.13;9.70;;;10.00;99.90;;;;;;5055779;28;20125;-29
2023/09/02 01:53:48;;;;;;;16.98;11.38;;;10.00;99.90;;;;;;5057000;28;20057;-28
2023/09/02 01:56:15;;;;;;;18.33;12.55;;;10.00;99.90;;;;;;5057215;28;20051;-28
2023/09/02 01:58:40;;;;;;;16.65;10.90;;;10.10;99.90;;;;;;5055713;28;20119;-29
2023/09/02 02:01:06;;;;;;;16.63;11.50;;;10.10;99.90;;;;;;5056835;28;20084;-28
2023/09/02 02:03:40;;;;;;;18.02;12.07;;;10.20;99.90;;;;;;5056898;28;20052;-28
2023/09/02 02:06:09;;;;;;;19.02;11.90;;;10.10;99.90;;;;;;5055543;28;20479;-29
2023/09/02 02:08:35;;;;;;;17.75;11.27;;;10.10;99.90;;;;;;5056760;28;20049;-28
2023/09/02 02:11:03;;;;;;;19.40;11.63;;;10.00;99.90;;;;;;5056686;28;20246;-28
2023/09/02 02:13:29;;;;;;;12.95;9.45;;;10.00;99.90;;;;;;5056642;28;20094;-28
2023/09/02 02:15:55;;;;;;;15.00;10.52;;;9.90;99.90;;;;;;5055658;28;20045;-28
2023/09/02 02:18:20;;;;;;;12.98;9.77;;;9.80;99.90;;;;;;5057373;28;20049;-28
2023/09/02 02:21:05;;;;;;;20.27;12.13;;;9.70;99.90;;;;;;5056541;28;20139;-28
2023/09/02 02:23:31;;;;;;;17.15;11.20;;;9.70;99.90;;;;;;5057061;28;20398;-28
2023/09/02 02:26:01;;;;;;;19.65;12.10;;;9.60;99.90;;;;;;5056384;28;20049;-28
2023/09/02 02:28:27;;;;;;;14.48;9.32;;;9.70;99.90;;;;;;5055402;28;20053;-28
2023/09/02 02:30:53;;;;;;;349.92;22.23;;;9.70;99.90;;;;;;5055322;28;20395;-28
2023/09/02 02:33:18;;;;;;;199.15;15.82;;;9.60;99.90;;;;;;5056774;28;20049;-29
2023/09/02 02:35:44;;;;;;;45.33;12.93;;;9.60;99.90;;;;;;5056236;28;20037;-28
2023/09/02 02:38:10;;;;;;;14.57;10.52;;;9.60;99.90;;;;;;5056164;28;20044;-28
2023/09/02 02:40:35;;;;;;;12.70;8.57;;;9.50;99.90;;;;;;5056523;28;20144;-28
2023/09/02 02:43:02;;;;;;;12.27;9.05;;;9.50;99.90;;;;;;5055585;28;20430;-28
2023/09/02 02:45:28;;;;;;;13.55;9.35;;;9.50;99.90;;;;;;5055976;28;20037;-28
2023/09/02 02:47:54;;;;;;;16.65;11.20;;;9.50;99.90;;;;;;5055016;28;20510;-28
2023/09/02 02:50:20;;;;;;;20.25;11.23;;;9.50;99.90;;;;;;5053993;28;20045;-28
2023/09/02 02:52:46;;;;;;;20.17;12.15;;;9.60;99.90;;;;;;5055928;28;20154;-28
2023/09/02 02:55:12;;;;;;;23.42;13.95;;;9.50;99.90;;;;;;5055857;28;20494;-28
2023/09/02 02:57:39;;;;;;;20.02;13.45;;;9.70;99.90;;;;;;5055847;28;20123;-28
2023/09/02 03:00:07;;;;;;;19.55;12.20;;;9.70;99.90;;;;;;5056294;28;20048;-28
2023/09/02 03:02:33;;;;;;;17.58;11.88;;;9.80;99.90;;;;;;5055991;28;20067;-28
2023/09/02 03:04:58;;;;;;;20.85;12.23;;;9.80;99.90;;;;;;5054586;28;20479;-28
2023/09/02 03:07:24;;;;;;;20.65;12.73;;;9.90;99.90;;;;;;5038060;28;20048;-28
2023/09/02 03:09:50;;;;;;;12.32;8.18;;;9.70;99.90;;;;;;5055577;28;20049;-28
2023/09/02 03:12:15;;;;;;;11.30;7.25;;;9.80;99.90;;;;;;5055495;28;20044;-28
2023/09/02 03:14:41;;;;;;;8.82;6.43;;;9.70;99.90;;;;;;5055474;28;20041;-28
2023/09/02 03:17:07;;;;;;;10.50;6.93;;;9.50;99.90;;;;;;5055418;28;20044;-28
2023/09/02 03:19:33;;;;;;;12.07;7.85;;;9.40;99.90;;;;;;5055426;28;20051;-28
2023/09/02 03:21:59;;;;;;;14.88;9.70;;;9.30;99.90;;;;;;5055331;28;20441;-28
2023/09/02 03:24:25;;;;;;;15.00;9.93;;;9.40;99.90;;;;;;5054051;28;20041;-28
2023/09/02 03:26:50;;;;;;;15.98;9.27;;;9.40;99.90;;;;;;5055224;28;20060;-28
2023/09/02 03:29:16;;;;;;;15.07;9.70;;;9.50;99.90;;;;;;5055159;28;20041;-28
2023/09/02 03:31:42;;;;;;;16.67;10.95;;;9.60;99.90;;;;;;5055737;28;20081;-28
2023/09/02 03:34:07;;;;;;;9.23;6.20;;;9.60;99.90;;;;;;5055122;28;20045;-28
2023/09/02 03:36:33;;;;;;;6.72;5.28;;;9.60;99.90;;;;;;5055090;28;20080;-28
2023/09/02 03:38:59;;;;;;;7.82;5.07;;;9.60;99.90;;;;;;5055317;28;20061;-28
2023/09/02 03:41:25;;;;;;;202.85;13.38;;;9.50;99.90;;;;;;5055522;28;20395;-28
2023/09/02 03:43:50;;;;;;;10.15;4.57;;;9.30;99.90;;;;;;5054550;28;20142;-28
2023/09/02 03:46:16;;;;;;;4.95;4.40;;;9.30;99.90;;;;;;5054830;28;20045;-28
2023/09/02 03:48:42;;;;;;;4.03;3.17;;;9.20;99.90;;;;;;5053886;28;20089;-28
2023/09/02 03:51:16;;;;;;;3.25;2.95;;;9.10;99.90;;;;;;5054788;28;20149;-28
2023/09/02 03:53:42;;;;;;;4.72;2.92;;;9.10;99.90;;;;;;5054761;28;20049;-28
2023/09/02 03:56:08;;;;;;;302.50;16.17;;;9.20;99.90;;;;;;5054671;28;20124;-28
2023/09/02 03:58:35;;;;;;;239.93;14.65;;;9.30;99.90;;;;;;5054598;28;20106;-28
2023/09/02 04:01:01;;;;;;;10.40;3.92;;;9.20;99.90;;;;;;5054391;28;20048;-29
2023/09/02 04:03:28;;;;;;;3.58;3.15;;;9.30;99.90;;;;;;5053438;28;20049;-28
2023/09/02 04:05:54;;;;;;;5.13;4.20;;;9.10;99.90;;;;;;5054470;28;20045;-28
2023/09/02 04:08:22;;;;;;;7.28;5.40;;;9.20;99.90;;;;;;5055101;28;20041;-29
2023/09/02 04:10:52;;;;;;;9.80;6.65;;;9.10;99.90;;;;;;5054741;28;20056;-28
2023/09/02 04:13:21;;;;;;;12.02;7.10;;;9.10;99.90;;;;;;5054425;28;20049;-28
2023/09/02 04:15:47;;;;;;;14.50;9.70;;;9.30;99.90;;;;;;5053370;28;20048;-28
2023/09/02 04:18:12;;;;;;;25.23;12.98;;;9.40;99.90;;;;;;5053310;28;20505;-28
2023/09/02 04:20:38;;;;;;;19.63;11.35;;;9.50;99.90;;;;;;5053274;28;20056;-28
2023/09/02 04:23:04;;;;;;;16.67;9.95;;;9.70;99.90;;;;;;5053062;28;20053;-28
2023/09/02 04:25:29;;;;;;;19.88;11.50;;;9.70;99.90;;;;;;5052910;28;20044;-28
2023/09/02 04:27:55;;;;;;;12.80;8.15;;;9.70;99.90;;;;;;5054179;28;20049;-28
2023/09/02 04:30:24;;;;;;;11.82;6.72;;;9.70;99.90;;;;;;5054360;28;20050;-28
2023/09/02 04:32:50;;;;;;;11.57;7.55;;;9.70;99.90;;;;;;5054594;28;20390;-28
2023/09/02 04:35:16;;;;;;;14.95;9.98;;;9.60;99.90;;;;;;5054011;28;20037;-28
2023/09/02 04:37:42;;;;;;;10.65;6.85;;;9.50;99.90;;;;;;5055069;28;20045;-28
2023/09/02 04:40:09;;;;;;;9.02;6.60;;;9.40;99.90;;;;;;5052521;28;20629;-28
2023/09/02 04:42:35;;;;;;;8.77;6.65;;;9.30;99.90;;;;;;5052848;28;20049;-28
2023/09/02 04:45:00;;;;;;;16.40;9.40;;;9.30;99.90;;;;;;5053844;28;20450;-28
2023/09/02 04:47:26;;;;;;;15.30;9.85;;;9.30;99.90;;;;;;5053841;28;20128;-28
2023/09/02 04:49:52;;;;;;;16.67;10.57;;;9.30;99.90;;;;;;5053736;28;20049;-28
2023/09/02 04:52:19;;;;;;;17.08;10.85;;;9.30;99.90;;;;;;5053748;28;20045;-28
2023/09/02 04:54:45;;;;;;;17.17;9.57;;;9.30;99.90;;;;;;5054268;28;20052;-28
2023/09/02 04:57:11;;;;;;;13.93;8.88;;;9.40;99.90;;;;;;5053690;28;20499;-28
2023/09/02 04:59:38;;;;;;;15.93;9.82;;;9.40;99.90;;;;;;5053646;28;20127;-27
2023/09/02 05:02:05;;;;;;;16.70;10.25;;;9.50;99.90;;;;;;5053631;28;20114;-28
2023/09/02 05:04:31;;;;;;;24.15;13.02;;;9.50;99.90;;;;;;5052284;28;20036;-28
2023/09/02 05:06:56;;;;;;;24.48;13.38;;;9.50;99.90;;;;;;5052647;28;20060;-28
2023/09/02 05:09:23;;;;;;;16.48;11.00;;;9.40;99.90;;;;;;5052347;28;20056;-28
2023/09/02 05:11:48;;;;;;;18.00;10.95;;;9.30;99.90;;;;;;5053210;28;20517;-28
2023/09/02 05:14:14;;;;;;;20.25;12.43;;;9.30;99.90;;;;;;5059004;28;20036;-28
2023/09/02 05:16:40;;;;;;;27.98;15.07;;;9.30;99.90;;;;;;5060699;28;20049;-28
2023/09/02 05:19:07;;;;;;;18.33;11.38;;;9.30;99.90;;;;;;5060114;28;20044;-28
2023/09/02 05:21:33;;;;;;;18.33;11.90;;;9.40;99.90;;;;;;5060119;28;20045;-29
2023/09/02 05:23:59;;;;;;;25.58;13.20;;;9.40;99.90;;;;;;5060637;28;20449;-28
2023/09/02 05:26:25;;;;;;;23.27;13.70;;;9.50;99.90;;;;;;5058836;28;20049;-28
2023/09/02 05:28:50;;;;;;;26.35;15.07;;;9.50;99.90;;;;;;5060006;28;20085;-27
2023/09/02 05:31:16;;;;;;;25.38;14.02;;;9.60;99.90;;;;;;5060001;28;20055;-28
2023/09/02 05:33:42;;;;;;;33.60;10.85;;;9.70;99.90;;;;;;5059075;28;20044;-28
2023/09/02 05:36:07;;;;;;;19.38;11.82;;;9.70;99.90;;;;;;5059950;28;20494;-28
2023/09/02 05:38:33;;;;;;;16.33;11.18;;;9.80;99.90;;;;;;5060027;28;20099;-28
2023/09/02 05:40:59;;;;;;;25.88;13.90;;;9.90;99.90;;;;;;5060005;28;20041;-29
2023/09/02 05:43:25;;;;;;;22.67;13.27;;;10.00;99.90;;;;;;5059838;28;20052;-28
2023/09/02 05:45:50;;;;;;;23.20;14.73;;;10.10;99.90;;;;;;5059873;28;20044;-28
2023/09/02 05:48:16;;;;;;;22.08;13.93;;;10.10;99.90;;;;;;5059777;28;20469;-28
2023/09/02 05:50:42;;;;;;;27.42;14.90;;;10.10;99.90;;;;;;5058581;28;20110;-27
2023/09/02 05:53:08;;;;;;;22.98;14.45;;;10.30;99.90;;;;;;5060463;28;20088;-28
2023/09/02 05:55:34;;;;;;;23.85;14.00;;;10.40;99.90;;;;;;5059852;28;20120;-28
2023/09/02 05:58:00;;;;;;;28.58;15.63;;;10.50;99.90;;;;;;5059143;28;20083;-28
2023/09/02 06:00:25;;;;;;;29.33;17.42;;;10.60;99.90;;;;;;5059830;28;20107;-28
2023/09/02 06:02:51;;;;;;;31.73;17.02;;;10.70;99.90;;;;;;5060590;28;20037;-28
2023/09/02 06:05:17;;;;;;;38.15;19.15;;;10.90;99.90;;;;;;5060262;28;20463;-28
2023/09/02 06:07:43;;;;;;;28.10;16.85;;;11.00;99.90;;;;;;5059692;28;20052;-28
2023/09/02 06:10:09;;;;;;;33.08;18.02;;;11.20;99.90;;;;;;5059720;28;20049;-29
2023/09/02 06:12:35;;;;;;;30.25;16.75;;;11.30;99.90;;;;;;5059407;28;20560;-28
2023/09/02 06:15:01;;;;;;;30.40;16.30;;;11.40;99.90;;;;;;5058500;28;20124;-28
2023/09/02 06:17:30;;;;;;;37.90;18.30;;;11.50;99.90;;;;;;5059664;28;20384;-29
2023/09/02 06:19:57;;;;;;;35.55;19.58;;;11.70;99.90;;;;;;5042247;28;20483;-28
2023/09/02 06:22:23;;;;;;;51.20;21.05;;;11.90;99.90;;;;;;5058455;28;20053;-28
2023/09/02 06:24:49;;;;;;;36.28;19.23;;;12.10;99.90;;;;;;5058516;28;20052;-29
2023/09/02 06:27:14;;;;;;;40.05;20.50;;;12.30;99.90;;;;;;5056978;28;20533;-28
2023/09/02 06:29:43;;;;;;;41.75;19.83;;;12.50;99.90;;;;;;5055102;28;20128;-28
2023/09/02 06:32:10;;;;;;;34.92;19.13;;;12.60;99.90;;;;;;5039486;28;20050;-29
2023/09/02 06:34:35;;;;;;;34.58;19.23;;;12.80;99.90;;;;;;5055216;28;20052;-28
2023/09/02 06:37:02;;;;;;;31.17;17.77;;;12.90;99.90;;;;;;5056145;28;20478;-28
2023/09/02 06:39:27;;;;;;;30.50;17.38;;;13.10;99.90;;;;;;5038547;28;20140;-28
2023/09/02 06:41:53;;;;;;;26.00;15.68;;;13.30;99.90;;;;;;5054965;28;20099;-28
2023/09/02 06:44:19;;;;;;;27.63;15.85;;;13.40;99.90;;;;;;5055939;28;20064;-28
2023/09/02 06:46:44;;;;;;;29.25;16.30;;;13.50;99.90;;;;;;5056041;28;20048;-28
2023/09/02 06:49:10;;;;;;;24.90;15.55;;;13.70;99.90;;;;;;5056245;28;20041;-28
2023/09/02 06:51:36;;;;;;;23.08;13.38;;;13.80;99.90;;;;;;5054774;28;20053;-28
2023/09/02 06:54:02;;;;;;;22.70;12.63;;;14.00;99.90;;;;;;5055755;28;20368;-29
2023/09/02 06:56:27;;;;;;;17.30;11.95;;;14.20;99.90;;;;;;5022248;28;20040;-28
2023/09/02 06:58:53;;;;;;;16.38;10.80;;;14.30;99.90;;;;;;5054511;28;20544;-28
2023/09/02 07:01:23;;;;;;;15.30;11.32;;;14.40;99.90;;;;;;5054492;28;20395;-29
2023/09/02 07:03:49;;;;;;;17.88;10.40;;;14.50;99.90;;;;;;5056000;28;20084;-28
2023/09/02 07:06:16;;;;;;;14.63;9.43;;;14.70;99.90;;;;;;5055519;28;20044;-28
2023/09/02 07:08:43;;;;;;;11.73;6.90;;;14.80;99.90;;;;;;5037968;28;20163;-28
2023/09/02 07:11:10;;;;;;;11.43;8.30;;;14.90;99.90;;;;;;5055563;28;20118;-28
2023/09/02 07:13:36;;;;;;;12.80;8.50;;;15.00;99.90;;;;;;5054600;28;20053;-28
2023/09/02 07:16:03;;;;;;;13.43;8.55;;;15.10;99.90;;;;;;5055553;28;20049;-28
2023/09/02 07:18:29;;;;;;;9.45;7.63;;;15.30;99.90;;;;;;5055431;28;20517;-28
2023/09/02 07:21:03;;;;;;;11.75;8.38;;;15.30;99.90;;;;;;5055469;28;20041;-29
2023/09/02 07:23:30;;;;;;;14.55;8.88;;;15.40;99.90;;;;;;5054363;28;20056;-28
2023/09/02 07:25:57;;;;;;;12.65;8.63;;;15.50;99.90;;;;;;5054375;28;20045;-28
2023/09/02 07:28:23;;;;;;;20.50;10.27;;;15.60;99.90;;;;;;5055296;28;20059;-29
2023/09/02 07:30:49;;;;;;;13.18;8.60;;;15.70;99.90;;;;;;5055257;28;20048;-28
2023/09/02 07:33:14;;;;;;;12.20;8.57;;;15.80;99.90;;;;;;5037710;28;20052;-30
2023/09/02 07:35:40;;;;;;;15.57;8.80;;;15.90;99.90;;;;;;5055168;28;20041;-28
2023/09/02 07:38:06;;;;;;;13.70;8.80;;;16.10;99.90;;;;;;5055626;28;20045;-28
2023/09/02 07:40:32;;;;;;;12.30;8.40;;;16.20;99.90;;;;;;5053904;28;20064;-28
2023/09/02 07:43:02;;;;;;;11.77;7.70;;;16.30;99.90;;;;;;5054960;28;20049;-29
2023/09/02 07:45:28;;;;;;;11.45;8.18;;;16.50;99.90;;;;;;5053682;28;20492;-28
2023/09/02 07:47:54;;;;;;;15.07;9.93;;;16.60;99.90;;;;;;5037187;28;20143;-29
2023/09/02 07:50:20;;;;;;;14.45;9.57;;;16.60;99.90;;;;;;5054925;28;20072;-28
2023/09/02 07:52:46;;;;;;;14.70;9.25;;;16.70;99.90;;;;;;5053840;28;20041;-28
2023/09/02 07:55:11;;;;;;;14.55;8.85;;;16.80;99.90;;;;;;5053541;28;20044;-28
2023/09/02 07:57:37;;;;;;;11.25;7.03;;;16.90;99.90;;;;;;5037449;28;20044;-28
2023/09/02 08:00:03;;;;;;;13.10;7.68;;;17.00;99.90;;;;;;5055479;28;20489;-28
2023/09/02 08:02:29;;;;;;;10.88;7.35;;;17.10;99.90;;;;;;5053578;28;20107;-28
2023/09/02 08:04:55;;;;;;;9.68;6.57;;;17.10;99.90;;;;;;5053362;28;20045;-29
2023/09/02 08:07:21;;;;;;;15.95;7.13;;;17.20;99.90;;;;;;5054496;28;20041;-28
2023/09/02 08:09:50;;;;;;;11.25;6.07;;;17.30;99.90;;;;;;5036820;28;20083;-28
2023/09/02 08:12:16;;;;;;;8.55;5.10;;;17.40;99.90;;;;;;5054441;28;20048;-29
2023/09/02 08:14:42;;;;;;;9.88;5.75;;;17.50;99.90;;;;;;5036829;28;20461;-28
2023/09/02 08:17:08;;;;;;;9.55;5.18;;;17.60;99.90;;;;;;5054824;28;20128;-29
2023/09/02 08:19:33;;;;;;;6.43;4.97;;;17.60;99.90;;;;;;5054571;28;20494;-29
2023/09/02 08:21:59;;;;;;;7.88;4.68;;;17.70;99.90;;;;;;5054759;28;20379;-29
2023/09/02 08:24:25;;;;;;;8.90;5.13;;;17.70;99.90;;;;;;5052988;28;20131;-30
2023/09/02 08:26:50;;;;;;;9.43;4.53;;;17.80;99.90;;;;;;5052972;28;20045;-29
2023/09/02 08:29:16;;;;;;;7.95;4.60;;;17.90;99.90;;;;;;5036817;28;20048;-28
2023/09/02 08:31:42;;;;;;;8.80;4.97;;;18.00;99.90;;;;;;5052569;28;20067;-29
2023/09/02 08:34:08;;;;;;;8.57;4.70;;;18.10;92.00;;;;;;5052793;28;20049;-30
2023/09/02 08:36:34;;;;;;;10.05;4.82;;;18.20;64.80;;;;;;5054552;28;20037;-28
2023/09/02 08:38:59;;;;;;;7.25;4.15;;;18.30;42.90;;;;;;5052722;28;20049;-29
2023/09/02 08:41:35;;;;;;;6.85;4.30;;;18.40;17.60;;;;;;5035952;28;20067;-29
2023/09/02 08:44:04;;;;;;;6.85;3.70;;;18.60;1.00;;;;;;5053664;28;20095;-29
2023/09/02 08:46:32;;;;;;;6.72;3.03;;;18.60;99.90;;;;;;5054376;28;20128;-29
2023/09/02 08:48:58;;;;;;;6.20;3.10;;;18.70;99.90;;;;;;5052993;28;20052;-29
2023/09/02 08:51:25;;;;;;;4.72;3.13;;;18.80;99.90;;;;;;5052613;28;20052;-29
2023/09/02 08:53:54;;;;;;;6.60;4.00;;;18.80;99.90;;;;;;5053434;28;20356;-28
2023/09/02 08:56:23;;;;;;;8.10;4.55;;;18.90;99.90;;;;;;5053554;28;20041;-29
2023/09/02 08:58:49;;;;;;;5.30;3.80;;;19.10;99.90;;;;;;5036061;28;20403;-29
2023/09/02 09:01:20;;;;;;;5.97;3.30;;;19.20;99.90;;;;;;5054055;28;20466;-29
2023/09/02 09:03:55;;;;;;;5.57;3.00;;;19.30;99.90;;;;;;5053514;28;20041;-28
2023/09/02 09:06:25;;;;;;;5.10;2.50;;;19.50;99.90;;;;;;5053365;28;20491;-29
2023/09/02 09:08:53;;;;;;;5.72;3.28;;;20.10;99.90;;;;;;5052205;28;20049;-29
2023/09/02 09:11:21;;;;;;;4.80;3.92;;;21.30;1.00;;;;;;5053907;28;20060;-29
2023/09/02 09:13:49;;;;;;;5.20;3.15;;;22.40;1.00;;;;;;5053334;28;20152;-29
2023/09/02 09:16:26;;;;;;;6.22;3.20;;;23.20;99.90;;;;;;5053344;28;20049;-28
2023/09/02 09:18:52;;;;;;;8.40;3.90;;;23.90;99.90;;;;;;5053271;28;20071;-29
2023/09/02 09:21:18;;;;;;;6.68;3.88;;;24.50;99.90;;;;;;5054067;28;20106;-29
2023/09/02 09:23:44;;;;;;;6.97;3.33;;;24.80;1.00;;;;;;5036554;28;20474;-29
2023/09/02 09:26:13;;;;;;;7.20;3.55;;;24.90;1.00;;;;;;5053039;28;20053;-29
2023/09/02 09:28:56;;;;;;;8.52;3.33;;;25.00;99.90;;;;;;5053230;28;20052;-29
2023/09/02 09:31:22;;;;;;;;;;;25.40;1.00;;;;;;5053939;28;20045;-29
2023/09/02 09:33:58;;;;;;;6.63;3.55;;;25.40;1.00;;;;;;5053206;28;19927;-29
2023/09/02 09:36:26;;;;;;;8.70;3.65;;;25.60;99.90;;;;;;5052664;28;20067;-29
2023/09/02 09:38:59;;;;;;;10.23;4.38;;;25.60;1.00;;;;;;5053012;28;20075;-29
2023/09/02 09:41:26;;;;;;;7.55;3.83;;;25.90;83.80;;;;;;5053913;28;20126;-30
2023/09/02 09:44:06;;;;;;;6.97;4.25;;;26.10;99.90;;;;;;5051989;28;20091;-29
2023/09/02 09:46:36;;;;;;;8.93;3.60;;;26.10;1.00;;;;;;5053180;28;20081;-30
2023/09/02 09:49:02;;;;;;;6.38;3.55;;;26.10;1.00;;;;;;5019927;28;20037;-30
2023/09/02 09:51:29;;;;;;;9.25;4.30;;;26.40;1.00;;;;;;5053257;28;20045;-29
2023/09/02 09:53:55;;;;;;;6.60;4.05;;;26.20;1.00;;;;;;5053217;28;20080;-29
2023/09/02 09:56:21;;;;;;;25.15;5.55;;;26.10;1.00;;;;;;5035631;28;20363;-29
2023/09/02 09:58:47;;;;;;;5.82;4.10;;;25.80;99.90;;;;;;5053410;28;20084;-29
2023/09/02 10:01:24;;;;;;;7.88;4.55;;;25.80;99.90;;;;;;5056933;28;20049;-29
2023/09/02 10:03:51;;;;;;;6.53;4.57;;;25.70;99.90;;;;;;5056853;28;20088;-29
2023/09/02 10:06:18;;;;;;;7.05;4.07;;;26.20;1.00;;;;;;5056719;28;20041;-30
2023/09/02 10:08:51;;;;;;;6.82;4.15;;;26.20;99.90;;;;;;5056484;28;20564;-29
2023/09/02 10:11:22;;;;;;;5.13;3.78;;;26.20;99.90;;;;;;5056765;28;20399;-29
2023/09/02 10:13:55;;;;;;;7.68;5.00;;;25.70;99.90;;;;;;5056557;28;20084;-29
2023/09/02 10:16:22;;;;;;;7.60;4.40;;;24.60;99.90;;;;;;5055407;28;20037;-29
2023/09/02 10:18:49;;;;;;;8.32;4.53;;;24.70;1.00;;;;;;5057402;28;20049;-29
2023/09/02 10:21:16;;;;;;;11.27;5.03;;;24.80;1.00;;;;;;5056848;28;20124;-29
2023/09/02 10:23:48;;;;;;;8.13;4.15;;;24.20;1.00;;;;;;5056171;28;20460;-29
2023/09/02 10:26:27;;;;;;;7.30;4.87;;;23.60;1.00;;;;;;5056505;28;20080;-29
2023/09/02 10:28:58;;;;;;;7.22;4.55;;;22.90;68.40;;;;;;5056680;28;20139;-29
2023/09/02 10:31:32;;;;;;;7.72;4.68;;;22.40;99.90;;;;;;5054992;28;20053;-29
2023/09/02 10:34:20;;;;;;;7.30;4.88;;;21.90;1.00;;;;;;5057058;28;20053;-30
2023/09/02 10:36:54;;;;;;;8.38;4.70;;;21.60;1.00;;;;;;5056130;28;20128;-30
2023/09/02 10:39:26;;;;;;;11.63;5.18;;;21.40;31.80;;;;;;5055079;28;20487;-29
2023/09/02 10:41:54;;;;;;;10.68;5.18;;;21.30;1.00;;;;;;5056940;28;20121;-30
2023/09/02 10:44:23;;;;;;;7.45;5.15;;;21.50;99.90;;;;;;5055965;28;20426;-30
2023/09/02 10:46:49;;;;;;;8.25;4.20;;;21.60;99.90;;;;;;5055951;28;20049;-29
2023/09/02 10:49:15;;;;;;;7.05;3.53;;;22.50;1.00;;;;;;5054926;28;20487;-30
2023/09/02 10:51:41;;;;;;;6.13;3.63;;;23.70;1.00;;;;;;5055899;28;20056;-29
2023/09/02 10:54:07;;;;;;;7.90;3.58;;;24.90;99.90;;;;;;5055813;28;20041;-30
2023/09/02 10:56:34;;;;;;;5.85;3.22;;;26.00;99.90;;;;;;5055416;28;20044;-29
2023/09/02 10:59:05;;;;;;;6.72;3.33;;;;;;;;;;5054659;28;20483;-29
2023/09/02 11:01:45;;;;;;;4.10;3.17;;;27.70;1.00;;;;;;5054677;28;20441;-30
2023/09/02 11:04:12;;;;;;;6.72;4.07;;;27.60;99.90;;;;;;5056428;28;20040;-30
2023/09/02 11:06:57;;;;;;;5.82;2.97;;;26.80;99.90;;;;;;5055420;28;20037;-29
2023/09/02 11:09:48;;;;;;;6.72;2.65;;;27.20;99.90;;;;;;5055550;28;20048;-30
2023/09/02 11:12:14;;;;;;;7.60;3.20;;;26.80;99.90;;;;;;5036492;28;20052;-30
2023/09/02 11:14:40;;;;;;;6.57;3.10;;;25.80;99.90;;;;;;5056372;28;20048;-29
2023/09/02 11:17:25;;;;;;;5.70;3.10;;;25.10;1.00;;;;;;5056091;28;20532;-29
2023/09/02 11:20:07;;;;;;;4.43;2.50;;;24.20;1.00;;;;;;5055685;28;20391;-29
2023/09/02 11:22:55;;;;;;;6.95;2.75;;;23.50;99.90;;;;;;5055685;28;20475;-29
2023/09/02 11:25:41;;;;;;;4.90;2.45;;;23.70;99.90;;;;;;5056164;28;20041;-29
2023/09/02 11:28:13;;;;;;;5.10;2.55;;;25.00;99.90;;;;;;5055257;28;20041;-29
2023/09/02 11:30:39;;;;;;;6.10;2.30;;;25.80;1.00;;;;;;5055297;28;20229;-30
2023/09/02 11:33:09;;;;;;;4.18;2.30;;;27.00;1.00;;;;;;5055800;28;20053;-29
2023/09/02 11:35:36;;;;;;;4.25;2.20;;;27.60;1.00;;;;;;5055173;28;20041;-30
2023/09/02 11:38:04;;;;;;;7.20;3.17;;;26.70;99.90;;;;;;5055723;28;20110;-29
2023/09/02 11:40:30;;;;;;;4.55;2.20;;;25.60;99.90;;;;;;5055647;28;20199;-29
2023/09/02 11:42:59;;;;;;;4.60;2.10;;;24.80;1.00;;;;;;5054936;28;20540;-29
2023/09/02 11:45:30;;;;;;;4.30;1.88;;;23.70;1.00;;;;;;5055517;28;20045;-30
2023/09/02 11:47:56;;;;;;;4.20;1.77;;;23.90;53.00;;;;;;5055861;28;20040;-29
2023/09/02 11:50:23;;;;;;;6.13;1.88;;;24.60;74.80;;;;;;5054907;28;20518;-29
2023/09/02 11:52:53;;;;;;;3.65;2.08;;;25.40;1.00;;;;;;5054859;28;20053;-29
2023/09/02 11:55:19;;;;;;;6.18;2.28;;;25.70;99.90;;;;;;5054838;28;20076;-30
2023/09/02 11:57:46;;;;;;;4.50;1.60;;;24.90;99.90;;;;;;5054711;28;20045;-30
2023/09/02 12:00:18;;;;;;;2.22;1.40;;;25.00;1.00;;;;;;5054762;28;20552;-29
2023/09/02 12:02:45;;;;;;;5.32;2.30;;;25.40;1.00;;;;;;5054687;28;20041;-29
2023/09/02 12:05:11;;;;;;;4.88;1.40;;;25.40;1.00;;;;;;5053317;28;20045;-29
2023/09/02 12:07:38;;;;;;;4.50;1.52;;;25.90;1.00;;;;;;5036821;28;20605;-29
2023/09/02 12:10:08;;;;;;;2.95;1.60;;;26.60;1.00;;;;;;5054419;28;20041;-30
2023/09/02 12:12:38;;;;;;;2.15;1.65;;;27.00;99.90;;;;;;5054703;28;20102;-30
2023/09/02 12:15:05;;;;;;;4.47;1.88;;;26.70;99.90;;;;;;5055323;28;20081;-30
2023/09/02 12:17:31;;;;;;;3.50;1.67;;;25.40;99.90;;;;;;5054287;28;20036;-30
2023/09/02 12:19:57;;;;;;;4.97;1.88;;;24.50;99.90;;;;;;5053043;28;20487;-29
2023/09/02 12:22:24;;;;;;;4.88;2.10;;;25.30;99.90;;;;;;5054134;28;20053;-30
2023/09/02 12:24:49;;;;;;;4.00;2.28;;;25.20;1.00;;;;;;5054691;28;20044;-29
2023/09/02 12:27:17;;;;;;;5.68;1.75;;;25.90;99.90;;;;;;5054229;28;20049;-30
2023/09/02 12:29:54;;;;;;;3.90;1.70;;;26.10;99.90;;;;;;5054123;28;20049;-30
2023/09/02 12:32:20;;;;;;;2.60;1.77;;;26.50;99.90;;;;;;5054950;28;20049;-29
2023/09/02 12:34:45;;;;;;;3.75;1.73;;;26.40;99.90;;;;;;5037326;28;20056;-30
2023/09/02 12:37:18;;;;;;;3.17;1.63;;;26.50;99.90;;;;;;5054033;28;20045;-29
2023/09/02 12:39:44;;;;;;;3.50;1.83;;;26.60;99.90;;;;;;5052751;28;20159;-30
2023/09/02 12:42:24;;;;;;;3.08;1.88;;;26.50;99.90;;;;;;5053983;28;20064;-29
2023/09/02 12:44:51;;;;;;;3.83;1.63;;;26.00;99.90;;;;;;5053901;28;20037;-29